sensor_id;sensor_type;location;lat;lon;timestamp;temperature;humidity
51902;DHT22;37929;53.218;6.548;2022-08-03T00:01:10;19.90;99.90
51902;DHT22;37929;53.218;6.548;2022-08-03T00:03:36;19.90;99.90
51902;DHT22;37929;53.218;6.548;2022-08-03T00:06:01;19.90;99.90
51902;DHT22;37929;53.218;6.548;2022-08-03T00:08:28;19.90;99.90
51902;DHT22;37929;53.218;6.548;2022-08-03T00:10:53;19.90;99.90
51902;DHT22;37929;53.218;6.548;2022-08-03T00:13:19;19.90;99.90
51902;DHT22;37929;53.218;6.548;2022-08-03T00:15:45;19.80;99.90
51902;DHT22;37929;53.218;6.548;2022-08-03T00:18:11;19.80;99.90
51902;DHT22;37929;53.218;6.548;2022-08-03T00:20:36;19.80;99.90
51902;DHT22;37929;53.218;6.548;2022-08-03T00:23:03;19.80;99.90
51902;DHT22;37929;53.218;6.548;2022-08-03T00:25:29;19.70;99.90
51902;DHT22;37929;53.218;6.548;2022-08-03T00:27:58;19.70;99.90
51902;DHT22;37929;53.218;6.548;2022-08-03T00:30:24;19.60;99.90
51902;DHT22;37929;53.218;6.548;2022-08-03T00:32:53;19.70;99.90
51902;DHT22;37929;53.218;6.548;2022-08-03T00:35:19;19.70;99.90
51902;DHT22;37929;53.218;6.548;2022-08-03T00:37:45;19.60;99.90
51902;DHT22;37929;53.218;6.548;2022-08-03T00:40:15;19.60;99.90
51902;DHT22;37929;53.218;6.548;2022-08-03T00:43:01;19.60;99.90
51902;DHT22;37929;53.218;6.548;2022-08-03T00:45:34;19.90;99.90
51902;DHT22;37929;53.218;6.548;2022-08-03T00:48:07;19.60;99.90
51902;DHT22;37929;53.218;6.548;2022-08-03T00:50:36;19.60;99.90
51902;DHT22;37929;53.218;6.548;2022-08-03T00:53:04;19.60;99.90
51902;DHT22;37929;53.218;6.548;2022-08-03T00:55:30;19.60;99.90
51902;DHT22;37929;53.218;6.548;2022-08-03T00:57:56;19.60;99.90
51902;DHT22;37929;53.218;6.548;2022-08-03T01:00:25;19.60;99.90
51902;DHT22;37929;53.218;6.548;2022-08-03T01:02:52;19.50;99.90
51902;DHT22;37929;53.218;6.548;2022-08-03T01:05:21;19.50;99.90
51902;DHT22;37929;53.218;6.548;2022-08-03T01:08:16;19.50;99.90
51902;DHT22;37929;53.218;6.548;2022-08-03T01:13:28;19.40;99.90
51902;DHT22;37929;53.218;6.548;2022-08-03T01:16:14;19.40;99.90
51902;DHT22;37929;53.218;6.548;2022-08-03T01:18:59;19.40;99.90
51902;DHT22;37929;53.218;6.548;2022-08-03T01:21:31;19.40;99.90
51902;DHT22;37929;53.218;6.548;2022-08-03T01:24:05;19.40;99.90
51902;DHT22;37929;53.218;6.548;2022-08-03T01:32:15;19.30;99.90
51902;DHT22;37929;53.218;6.548;2022-08-03T01:34:47;19.30;99.90
51902;DHT22;37929;53.218;6.548;2022-08-03T01:37:34;19.30;99.90
51902;DHT22;37929;53.218;6.548;2022-08-03T01:40:02;19.30;99.90
51902;DHT22;37929;53.218;6.548;2022-08-03T01:42:33;19.30;99.90
51902;DHT22;37929;53.218;6.548;2022-08-03T01:45:02;19.20;99.90
51902;DHT22;37929;53.218;6.548;2022-08-03T01:47:29;19.30;99.90
51902;DHT22;37929;53.218;6.548;2022-08-03T01:50:00;19.20;99.90
51902;DHT22;37929;53.218;6.548;2022-08-03T01:52:28;19.20;99.90
51902;DHT22;37929;53.218;6.548;2022-08-03T01:54:54;19.20;99.90
51902;DHT22;37929;53.218;6.548;2022-08-03T01:57:21;19.20;99.90
51902;DHT22;37929;53.218;6.548;2022-08-03T01:59:52;19.20;99.90
51902;DHT22;37929;53.218;6.548;2022-08-03T02:02:23;19.20;99.90
51902;DHT22;37929;53.218;6.548;2022-08-03T02:05:00;19.20;99.90
51902;DHT22;37929;53.218;6.548;2022-08-03T02:07:31;19.20;99.90
51902;DHT22;37929;53.218;6.548;2022-08-03T02:09:58;19.10;99.90
51902;DHT22;37929;53.218;6.548;2022-08-03T02:12:29;19.10;99.90
51902;DHT22;37929;53.218;6.548;2022-08-03T02:14:59;19.10;99.90
51902;DHT22;37929;53.218;6.548;2022-08-03T02:17:27;19.10;99.90
51902;DHT22;37929;53.218;6.548;2022-08-03T02:19:57;19.10;99.90
51902;DHT22;37929;53.218;6.548;2022-08-03T02:22:24;19.10;99.90
51902;DHT22;37929;53.218;6.548;2022-08-03T02:24:50;19.10;99.90
51902;DHT22;37929;53.218;6.548;2022-08-03T02:27:23;19.10;99.90
51902;DHT22;37929;53.218;6.548;2022-08-03T02:29:59;19.20;99.90
51902;DHT22;37929;53.218;6.548;2022-08-03T02:32:50;19.10;99.90
51902;DHT22;37929;53.218;6.548;2022-08-03T02:35:22;19.10;99.90
51902;DHT22;37929;53.218;6.548;2022-08-03T02:37:51;19.10;99.90
51902;DHT22;37929;53.218;6.548;2022-08-03T02:40:22;19.10;99.90
51902;DHT22;37929;53.218;6.548;2022-08-03T02:42:51;19.00;99.90
51902;DHT22;37929;53.218;6.548;2022-08-03T02:45:19;19.10;99.90
51902;DHT22;37929;53.218;6.548;2022-08-03T02:47:46;19.10;99.90
51902;DHT22;37929;53.218;6.548;2022-08-03T02:50:17;19.10;99.90
51902;DHT22;37929;53.218;6.548;2022-08-03T02:52:45;19.00;99.90
51902;DHT22;37929;53.218;6.548;2022-08-03T02:55:13;19.00;99.90
51902;DHT22;37929;53.218;6.548;2022-08-03T02:57:40;19.00;99.90
51902;DHT22;37929;53.218;6.548;2022-08-03T03:00:12;19.00;99.90
51902;DHT22;37929;53.218;6.548;2022-08-03T03:02:41;19.00;99.90
51902;DHT22;37929;53.218;6.548;2022-08-03T03:05:11;19.00;99.90
51902;DHT22;37929;53.218;6.548;2022-08-03T03:07:39;19.00;99.90
51902;DHT22;37929;53.218;6.548;2022-08-03T03:10:06;19.00;99.90
51902;DHT22;37929;53.218;6.548;2022-08-03T03:12:37;19.00;99.90
51902;DHT22;37929;53.218;6.548;2022-08-03T03:15:06;19.00;99.90
51902;DHT22;37929;53.218;6.548;2022-08-03T03:17:36;19.00;99.90
51902;DHT22;37929;53.218;6.548;2022-08-03T03:20:04;19.00;99.90
51902;DHT22;37929;53.218;6.548;2022-08-03T03:22:32;18.90;99.90
51902;DHT22;37929;53.218;6.548;2022-08-03T03:24:58;18.90;99.90
51902;DHT22;37929;53.218;6.548;2022-08-03T03:27:25;18.80;99.90
51902;DHT22;37929;53.218;6.548;2022-08-03T03:29:51;18.80;99.90
51902;DHT22;37929;53.218;6.548;2022-08-03T03:32:17;18.80;99.90
51902;DHT22;37929;53.218;6.548;2022-08-03T03:34:43;18.80;99.90
51902;DHT22;37929;53.218;6.548;2022-08-03T03:37:09;18.80;99.90
51902;DHT22;37929;53.218;6.548;2022-08-03T03:39:38;18.80;99.90
51902;DHT22;37929;53.218;6.548;2022-08-03T03:42:07;18.80;99.90
51902;DHT22;37929;53.218;6.548;2022-08-03T03:44:35;18.70;99.90
51902;DHT22;37929;53.218;6.548;2022-08-03T03:47:01;18.70;99.90
51902;DHT22;37929;53.218;6.548;2022-08-03T03:49:28;18.70;99.90
51902;DHT22;37929;53.218;6.548;2022-08-03T03:51:56;18.60;99.90
51902;DHT22;37929;53.218;6.548;2022-08-03T03:54:25;18.60;99.90
51902;DHT22;37929;53.218;6.548;2022-08-03T03:56:51;18.60;99.90
51902;DHT22;37929;53.218;6.548;2022-08-03T03:59:17;18.60;99.90
51902;DHT22;37929;53.218;6.548;2022-08-03T04:01:43;18.50;99.90
51902;DHT22;37929;53.218;6.548;2022-08-03T04:04:09;18.60;99.90
51902;DHT22;37929;53.218;6.548;2022-08-03T04:06:53;18.50;99.90
51902;DHT22;37929;53.218;6.548;2022-08-03T04:09:41;18.50;99.90
51902;DHT22;37929;53.218;6.548;2022-08-03T04:12:29;18.50;99.90
51902;DHT22;37929;53.218;6.548;2022-08-03T04:14:56;18.50;99.90
51902;DHT22;37929;53.218;6.548;2022-08-03T04:17:26;18.50;99.90
51902;DHT22;37929;53.218;6.548;2022-08-03T04:19:56;18.50;99.90
51902;DHT22;37929;53.218;6.548;2022-08-03T04:22:25;18.40;99.90
51902;DHT22;37929;53.218;6.548;2022-08-03T04:25:00;18.40;99.90
51902;DHT22;37929;53.218;6.548;2022-08-03T04:27:32;18.40;99.90
51902;DHT22;37929;53.218;6.548;2022-08-03T04:30:02;18.40;99.90
51902;DHT22;37929;53.218;6.548;2022-08-03T04:32:29;18.60;99.90
51902;DHT22;37929;53.218;6.548;2022-08-03T04:34:55;18.40;99.90
51902;DHT22;37929;53.218;6.548;2022-08-03T04:37:42;18.40;99.90
51902;DHT22;37929;53.218;6.548;2022-08-03T04:40:15;18.40;99.90
51902;DHT22;37929;53.218;6.548;2022-08-03T04:42:43;18.40;99.90
51902;DHT22;37929;53.218;6.548;2022-08-03T04:45:12;18.40;99.90
51902;DHT22;37929;53.218;6.548;2022-08-03T04:47:38;18.40;99.90
51902;DHT22;37929;53.218;6.548;2022-08-03T04:50:04;18.40;99.90
51902;DHT22;37929;53.218;6.548;2022-08-03T04:52:30;18.40;99.90
51902;DHT22;37929;53.218;6.548;2022-08-03T04:54:57;18.40;99.90
51902;DHT22;37929;53.218;6.548;2022-08-03T04:57:23;18.40;99.90
51902;DHT22;37929;53.218;6.548;2022-08-03T04:59:50;18.50;99.90
51902;DHT22;37929;53.218;6.548;2022-08-03T05:02:21;18.50;99.90
51902;DHT22;37929;53.218;6.548;2022-08-03T05:04:47;18.50;99.90
51902;DHT22;37929;53.218;6.548;2022-08-03T05:07:14;18.50;99.90
51902;DHT22;37929;53.218;6.548;2022-08-03T05:09:40;18.60;99.90
51902;DHT22;37929;53.218;6.548;2022-08-03T05:12:06;18.60;99.90
51902;DHT22;37929;53.218;6.548;2022-08-03T05:14:36;18.60;99.90
51902;DHT22;37929;53.218;6.548;2022-08-03T05:17:06;18.60;99.90
51902;DHT22;37929;53.218;6.548;2022-08-03T05:19:33;18.70;99.90
51902;DHT22;37929;53.218;6.548;2022-08-03T05:21:58;18.70;99.90
51902;DHT22;37929;53.218;6.548;2022-08-03T05:24:24;18.70;99.90
51902;DHT22;37929;53.218;6.548;2022-08-03T05:26:50;18.70;99.90
51902;DHT22;37929;53.218;6.548;2022-08-03T05:29:16;18.80;99.90
51902;DHT22;37929;53.218;6.548;2022-08-03T05:31:42;18.80;99.90
51902;DHT22;37929;53.218;6.548;2022-08-03T05:34:07;18.80;99.90
51902;DHT22;37929;53.218;6.548;2022-08-03T05:36:33;18.80;99.90
51902;DHT22;37929;53.218;6.548;2022-08-03T05:38:59;18.90;99.90
51902;DHT22;37929;53.218;6.548;2022-08-03T05:41:25;18.90;99.90
51902;DHT22;37929;53.218;6.548;2022-08-03T05:43:54;18.90;99.90
51902;DHT22;37929;53.218;6.548;2022-08-03T05:46:23;18.90;99.90
51902;DHT22;37929;53.218;6.548;2022-08-03T05:48:48;19.00;99.90
51902;DHT22;37929;53.218;6.548;2022-08-03T05:51:14;19.10;99.90
51902;DHT22;37929;53.218;6.548;2022-08-03T05:53:41;19.10;99.90
51902;DHT22;37929;53.218;6.548;2022-08-03T05:56:10;19.10;99.90
51902;DHT22;37929;53.218;6.548;2022-08-03T05:58:37;19.10;99.90
51902;DHT22;37929;53.218;6.548;2022-08-03T06:01:03;19.10;99.90
51902;DHT22;37929;53.218;6.548;2022-08-03T06:03:28;19.20;99.90
51902;DHT22;37929;53.218;6.548;2022-08-03T06:05:54;19.20;99.90
51902;DHT22;37929;53.218;6.548;2022-08-03T06:08:21;19.30;99.90
51902;DHT22;37929;53.218;6.548;2022-08-03T06:10:48;19.30;99.90
51902;DHT22;37929;53.218;6.548;2022-08-03T06:13:14;19.40;99.90
51902;DHT22;37929;53.218;6.548;2022-08-03T06:15:40;19.40;99.90
51902;DHT22;37929;53.218;6.548;2022-08-03T06:18:10;19.50;99.90
51902;DHT22;37929;53.218;6.548;2022-08-03T06:20:35;19.70;99.90
51902;DHT22;37929;53.218;6.548;2022-08-03T06:23:01;19.60;99.90
51902;DHT22;37929;53.218;6.548;2022-08-03T06:25:27;19.60;99.90
51902;DHT22;37929;53.218;6.548;2022-08-03T06:27:53;19.60;99.90
51902;DHT22;37929;53.218;6.548;2022-08-03T06:30:19;19.70;99.90
51902;DHT22;37929;53.218;6.548;2022-08-03T06:32:45;19.70;99.90
51902;DHT22;37929;53.218;6.548;2022-08-03T06:35:10;19.80;99.90
51902;DHT22;37929;53.218;6.548;2022-08-03T06:37:49;19.80;99.90
51902;DHT22;37929;53.218;6.548;2022-08-03T06:40:17;19.90;99.90
51902;DHT22;37929;53.218;6.548;2022-08-03T06:42:44;20.00;99.90
51902;DHT22;37929;53.218;6.548;2022-08-03T06:45:11;20.00;99.90
51902;DHT22;37929;53.218;6.548;2022-08-03T06:47:39;20.10;99.90
51902;DHT22;37929;53.218;6.548;2022-08-03T06:50:09;20.10;99.90
51902;DHT22;37929;53.218;6.548;2022-08-03T06:52:35;20.20;99.90
51902;DHT22;37929;53.218;6.548;2022-08-03T06:55:07;20.20;99.90
51902;DHT22;37929;53.218;6.548;2022-08-03T06:57:33;20.20;99.90
51902;DHT22;37929;53.218;6.548;2022-08-03T06:59:59;20.30;99.90
51902;DHT22;37929;53.218;6.548;2022-08-03T07:02:27;20.30;99.90
51902;DHT22;37929;53.218;6.548;2022-08-03T07:04:56;20.40;99.90
51902;DHT22;37929;53.218;6.548;2022-08-03T07:07:21;20.40;99.90
51902;DHT22;37929;53.218;6.548;2022-08-03T07:09:47;20.40;99.90
51902;DHT22;37929;53.218;6.548;2022-08-03T07:12:16;20.50;99.90
51902;DHT22;37929;53.218;6.548;2022-08-03T07:14:44;20.60;99.90
51902;DHT22;37929;53.218;6.548;2022-08-03T07:17:10;20.60;99.90
51902;DHT22;37929;53.218;6.548;2022-08-03T07:19:36;20.70;99.90
51902;DHT22;37929;53.218;6.548;2022-08-03T07:22:01;20.70;99.90
51902;DHT22;37929;53.218;6.548;2022-08-03T07:24:28;20.80;99.90
51902;DHT22;37929;53.218;6.548;2022-08-03T07:26:57;20.80;99.90
51902;DHT22;37929;53.218;6.548;2022-08-03T07:29:22;20.90;99.90
51902;DHT22;37929;53.218;6.548;2022-08-03T07:31:48;20.90;99.90
51902;DHT22;37929;53.218;6.548;2022-08-03T07:34:14;21.10;99.90
51902;DHT22;37929;53.218;6.548;2022-08-03T07:36:40;21.10;99.90
51902;DHT22;37929;53.218;6.548;2022-08-03T07:39:08;21.10;99.90
51902;DHT22;37929;53.218;6.548;2022-08-03T07:41:34;21.20;99.90
51902;DHT22;37929;53.218;6.548;2022-08-03T07:43:59;21.20;99.90
51902;DHT22;37929;53.218;6.548;2022-08-03T07:46:25;21.30;99.90
51902;DHT22;37929;53.218;6.548;2022-08-03T07:48:51;21.40;99.90
51902;DHT22;37929;53.218;6.548;2022-08-03T07:51:17;21.40;99.90
51902;DHT22;37929;53.218;6.548;2022-08-03T07:53:43;21.50;99.90
51902;DHT22;37929;53.218;6.548;2022-08-03T07:56:08;21.50;99.90
51902;DHT22;37929;53.218;6.548;2022-08-03T07:58:35;21.60;99.90
51902;DHT22;37929;53.218;6.548;2022-08-03T08:01:01;21.70;99.90
51902;DHT22;37929;53.218;6.548;2022-08-03T08:03:26;21.80;99.90
51902;DHT22;37929;53.218;6.548;2022-08-03T08:05:52;21.90;99.90
51902;DHT22;37929;53.218;6.548;2022-08-03T08:08:19;21.90;99.90
51902;DHT22;37929;53.218;6.548;2022-08-03T08:10:46;21.90;99.90
51902;DHT22;37929;53.218;6.548;2022-08-03T08:13:12;22.00;99.90
51902;DHT22;37929;53.218;6.548;2022-08-03T08:15:38;22.10;99.90
51902;DHT22;37929;53.218;6.548;2022-08-03T08:18:03;22.10;99.90
51902;DHT22;37929;53.218;6.548;2022-08-03T08:20:32;22.20;99.90
51902;DHT22;37929;53.218;6.548;2022-08-03T08:23:00;22.20;99.90
51902;DHT22;37929;53.218;6.548;2022-08-03T08:25:26;22.30;99.90
51902;DHT22;37929;53.218;6.548;2022-08-03T08:27:51;22.40;99.90
51902;DHT22;37929;53.218;6.548;2022-08-03T08:30:19;22.40;99.90
51902;DHT22;37929;53.218;6.548;2022-08-03T08:32:45;22.50;99.90
51902;DHT22;37929;53.218;6.548;2022-08-03T08:35:11;22.60;99.90
51902;DHT22;37929;53.218;6.548;2022-08-03T08:37:37;22.70;99.90
51902;DHT22;37929;53.218;6.548;2022-08-03T08:40:05;22.70;99.90
51902;DHT22;37929;53.218;6.548;2022-08-03T08:42:32;22.80;99.90
51902;DHT22;37929;53.218;6.548;2022-08-03T08:44:59;22.90;99.90
51902;DHT22;37929;53.218;6.548;2022-08-03T08:47:30;23.00;99.90
51902;DHT22;37929;53.218;6.548;2022-08-03T08:49:57;23.00;99.90
51902;DHT22;37929;53.218;6.548;2022-08-03T08:52:28;23.10;99.90
51902;DHT22;37929;53.218;6.548;2022-08-03T08:54:57;23.10;99.90
51902;DHT22;37929;53.218;6.548;2022-08-03T08:57:30;23.20;99.90
51902;DHT22;37929;53.218;6.548;2022-08-03T08:59:57;23.30;99.90
51902;DHT22;37929;53.218;6.548;2022-08-03T09:02:23;23.40;99.90
51902;DHT22;37929;53.218;6.548;2022-08-03T09:04:50;23.40;99.90
51902;DHT22;37929;53.218;6.548;2022-08-03T09:07:16;23.30;99.90
51902;DHT22;37929;53.218;6.548;2022-08-03T09:09:42;23.30;99.90
51902;DHT22;37929;53.218;6.548;2022-08-03T09:12:08;23.40;99.90
51902;DHT22;37929;53.218;6.548;2022-08-03T09:14:34;23.50;99.90
51902;DHT22;37929;53.218;6.548;2022-08-03T09:17:02;23.60;99.90
51902;DHT22;37929;53.218;6.548;2022-08-03T09:19:30;23.60;99.90
51902;DHT22;37929;53.218;6.548;2022-08-03T09:22:14;23.80;99.90
51902;DHT22;37929;53.218;6.548;2022-08-03T09:25:13;23.90;99.90
51902;DHT22;37929;53.218;6.548;2022-08-03T09:27:45;23.80;99.90
51902;DHT22;37929;53.218;6.548;2022-08-03T09:30:16;23.90;99.90
51902;DHT22;37929;53.218;6.548;2022-08-03T09:32:42;24.00;99.90
51902;DHT22;37929;53.218;6.548;2022-08-03T09:35:09;24.20;99.90
51902;DHT22;37929;53.218;6.548;2022-08-03T09:37:35;24.30;99.90
51902;DHT22;37929;53.218;6.548;2022-08-03T09:40:03;24.30;99.90
51902;DHT22;37929;53.218;6.548;2022-08-03T09:42:29;24.40;99.90
51902;DHT22;37929;53.218;6.548;2022-08-03T09:44:58;24.40;99.90
51902;DHT22;37929;53.218;6.548;2022-08-03T09:47:34;24.50;99.90
51902;DHT22;37929;53.218;6.548;2022-08-03T09:50:08;24.50;99.90
51902;DHT22;37929;53.218;6.548;2022-08-03T09:52:38;24.60;99.90
51902;DHT22;37929;53.218;6.548;2022-08-03T09:55:13;24.60;99.90
51902;DHT22;37929;53.218;6.548;2022-08-03T09:57:43;24.70;99.90
51902;DHT22;37929;53.218;6.548;2022-08-03T10:00:13;24.70;99.90
51902;DHT22;37929;53.218;6.548;2022-08-03T10:02:41;24.80;99.90
51902;DHT22;37929;53.218;6.548;2022-08-03T10:05:11;24.80;99.90
51902;DHT22;37929;53.218;6.548;2022-08-03T10:07:55;24.90;99.90
51902;DHT22;37929;53.218;6.548;2022-08-03T10:10:21;24.90;99.90
51902;DHT22;37929;53.218;6.548;2022-08-03T10:12:49;25.00;99.90
51902;DHT22;37929;53.218;6.548;2022-08-03T10:15:16;25.10;99.90
51902;DHT22;37929;53.218;6.548;2022-08-03T10:17:42;25.10;99.90
51902;DHT22;37929;53.218;6.548;2022-08-03T10:20:08;25.40;99.90
51902;DHT22;37929;53.218;6.548;2022-08-03T10:22:35;25.20;99.90
51902;DHT22;37929;53.218;6.548;2022-08-03T10:25:07;25.30;99.90
51902;DHT22;37929;53.218;6.548;2022-08-03T10:27:36;25.30;99.90
51902;DHT22;37929;53.218;6.548;2022-08-03T10:30:07;25.30;99.90
51902;DHT22;37929;53.218;6.548;2022-08-03T10:35:06;25.40;99.90
51902;DHT22;37929;53.218;6.548;2022-08-03T10:37:42;25.50;99.90
51902;DHT22;37929;53.218;6.548;2022-08-03T10:40:12;25.50;99.90
51902;DHT22;37929;53.218;6.548;2022-08-03T10:42:40;25.50;99.90
51902;DHT22;37929;53.218;6.548;2022-08-03T10:45:14;25.50;99.90
51902;DHT22;37929;53.218;6.548;2022-08-03T10:47:42;25.60;99.90
51902;DHT22;37929;53.218;6.548;2022-08-03T10:50:10;25.60;99.90
51902;DHT22;37929;53.218;6.548;2022-08-03T10:52:56;25.60;99.90
51902;DHT22;37929;53.218;6.548;2022-08-03T11:01:10;25.80;99.90
51902;DHT22;37929;53.218;6.548;2022-08-03T11:06:18;25.90;99.90
51902;DHT22;37929;53.218;6.548;2022-08-03T11:08:50;26.00;99.90
51902;DHT22;37929;53.218;6.548;2022-08-03T11:11:34;26.10;99.90
51902;DHT22;37929;53.218;6.548;2022-08-03T11:16:31;26.20;99.90
51902;DHT22;37929;53.218;6.548;2022-08-03T11:19:04;26.20;99.90
51902;DHT22;37929;53.218;6.548;2022-08-03T11:27:28;26.40;99.90
51902;DHT22;37929;53.218;6.548;2022-08-03T11:35:30;26.50;99.90
51902;DHT22;37929;53.218;6.548;2022-08-03T11:40:47;26.60;99.90
51902;DHT22;37929;53.218;6.548;2022-08-03T11:46:10;26.80;99.90
51902;DHT22;37929;53.218;6.548;2022-08-03T11:48:49;26.90;99.90
51902;DHT22;37929;53.218;6.548;2022-08-03T11:51:20;27.00;99.90
51902;DHT22;37929;53.218;6.548;2022-08-03T11:53:57;27.10;99.90
51902;DHT22;37929;53.218;6.548;2022-08-03T11:56:27;27.20;99.90
51902;DHT22;37929;53.218;6.548;2022-08-03T11:58:55;27.20;99.90
51902;DHT22;37929;53.218;6.548;2022-08-03T12:01:31;27.20;99.90
51902;DHT22;37929;53.218;6.548;2022-08-03T12:04:05;27.30;99.90
51902;DHT22;37929;53.218;6.548;2022-08-03T12:06:31;27.40;99.90
51902;DHT22;37929;53.218;6.548;2022-08-03T12:09:17;27.40;99.90
51902;DHT22;37929;53.218;6.548;2022-08-03T12:11:51;27.40;99.90
51902;DHT22;37929;53.218;6.548;2022-08-03T12:14:20;27.50;99.90
51902;DHT22;37929;53.218;6.548;2022-08-03T12:16:49;27.50;99.90
51902;DHT22;37929;53.218;6.548;2022-08-03T12:19:21;27.50;99.90
51902;DHT22;37929;53.218;6.548;2022-08-03T12:21:48;27.50;99.90
51902;DHT22;37929;53.218;6.548;2022-08-03T12:24:14;27.50;99.90
51902;DHT22;37929;53.218;6.548;2022-08-03T12:26:49;27.60;99.90
51902;DHT22;37929;53.218;6.548;2022-08-03T12:29:19;27.50;99.90
51902;DHT22;37929;53.218;6.548;2022-08-03T12:31:45;27.50;99.90
51902;DHT22;37929;53.218;6.548;2022-08-03T12:34:12;27.60;99.90
51902;DHT22;37929;53.218;6.548;2022-08-03T12:36:52;27.70;99.90
51902;DHT22;37929;53.218;6.548;2022-08-03T12:39:25;27.90;99.90
51902;DHT22;37929;53.218;6.548;2022-08-03T12:41:53;27.90;99.90
51902;DHT22;37929;53.218;6.548;2022-08-03T12:44:29;28.00;99.90
51902;DHT22;37929;53.218;6.548;2022-08-03T12:46:59;28.10;99.90
51902;DHT22;37929;53.218;6.548;2022-08-03T12:49:25;28.10;99.90
51902;DHT22;37929;53.218;6.548;2022-08-03T12:54:21;28.30;99.90
51902;DHT22;37929;53.218;6.548;2022-08-03T12:56:59;28.20;99.90
51902;DHT22;37929;53.218;6.548;2022-08-03T12:59:28;28.20;99.90
51902;DHT22;37929;53.218;6.548;2022-08-03T13:01:54;28.00;99.90
51902;DHT22;37929;53.218;6.548;2022-08-03T13:04:31;28.00;99.90
51902;DHT22;37929;53.218;6.548;2022-08-03T13:06:58;28.00;99.90
51902;DHT22;37929;53.218;6.548;2022-08-03T13:09:24;28.00;99.90
51902;DHT22;37929;53.218;6.548;2022-08-03T13:12:10;28.00;99.90
51902;DHT22;37929;53.218;6.548;2022-08-03T13:14:36;28.00;99.90
51902;DHT22;37929;53.218;6.548;2022-08-03T13:17:03;27.90;99.90
51902;DHT22;37929;53.218;6.548;2022-08-03T13:19:33;27.90;99.90
51902;DHT22;37929;53.218;6.548;2022-08-03T13:22:17;27.80;99.90
51902;DHT22;37929;53.218;6.548;2022-08-03T13:24:45;27.90;99.90
51902;DHT22;37929;53.218;6.548;2022-08-03T13:27:12;28.00;99.90
51902;DHT22;37929;53.218;6.548;2022-08-03T13:29:39;27.90;99.90
51902;DHT22;37929;53.218;6.548;2022-08-03T13:32:07;28.00;99.90
51902;DHT22;37929;53.218;6.548;2022-08-03T13:34:33;27.90;99.90
51902;DHT22;37929;53.218;6.548;2022-08-03T13:36:59;27.90;99.90
51902;DHT22;37929;53.218;6.548;2022-08-03T13:39:25;28.00;99.90
51902;DHT22;37929;53.218;6.548;2022-08-03T13:41:54;28.00;99.90
51902;DHT22;37929;53.218;6.548;2022-08-03T13:44:20;28.00;99.90
51902;DHT22;37929;53.218;6.548;2022-08-03T13:46:46;28.00;99.90
51902;DHT22;37929;53.218;6.548;2022-08-03T13:49:12;28.00;99.90
51902;DHT22;37929;53.218;6.548;2022-08-03T13:51:38;28.00;99.90
51902;DHT22;37929;53.218;6.548;2022-08-03T13:54:04;27.90;99.90
51902;DHT22;37929;53.218;6.548;2022-08-03T13:56:33;28.00;99.90
51902;DHT22;37929;53.218;6.548;2022-08-03T13:58:59;27.90;99.90
51902;DHT22;37929;53.218;6.548;2022-08-03T14:01:25;28.00;99.90
51902;DHT22;37929;53.218;6.548;2022-08-03T14:03:51;28.00;99.90
51902;DHT22;37929;53.218;6.548;2022-08-03T14:06:22;28.00;99.90
51902;DHT22;37929;53.218;6.548;2022-08-03T14:08:49;27.90;99.90
51902;DHT22;37929;53.218;6.548;2022-08-03T14:11:16;27.80;99.90
51902;DHT22;37929;53.218;6.548;2022-08-03T14:13:42;27.80;99.90
51902;DHT22;37929;53.218;6.548;2022-08-03T14:16:08;27.90;99.90
51902;DHT22;37929;53.218;6.548;2022-08-03T14:18:34;28.10;99.90
51902;DHT22;37929;53.218;6.548;2022-08-03T14:21:04;28.00;99.90
51902;DHT22;37929;53.218;6.548;2022-08-03T14:23:39;28.10;99.90
51902;DHT22;37929;53.218;6.548;2022-08-03T14:26:06;28.10;99.90
51902;DHT22;37929;53.218;6.548;2022-08-03T14:28:32;28.10;99.90
51902;DHT22;37929;53.218;6.548;2022-08-03T14:30:58;28.00;99.90
51902;DHT22;37929;53.218;6.548;2022-08-03T14:33:27;28.10;99.90
51902;DHT22;37929;53.218;6.548;2022-08-03T14:35:53;28.10;99.90
51902;DHT22;37929;53.218;6.548;2022-08-03T14:38:20;28.10;99.90
51902;DHT22;37929;53.218;6.548;2022-08-03T14:40:47;28.20;99.90
51902;DHT22;37929;53.218;6.548;2022-08-03T14:43:13;28.20;99.90
51902;DHT22;37929;53.218;6.548;2022-08-03T14:45:39;28.20;99.90
51902;DHT22;37929;53.218;6.548;2022-08-03T14:48:08;28.20;99.90
51902;DHT22;37929;53.218;6.548;2022-08-03T14:50:39;28.20;99.90
51902;DHT22;37929;53.218;6.548;2022-08-03T14:53:05;28.00;99.90
51902;DHT22;37929;53.218;6.548;2022-08-03T14:55:33;28.00;99.90
51902;DHT22;37929;53.218;6.548;2022-08-03T14:57:59;27.90;99.90
51902;DHT22;37929;53.218;6.548;2022-08-03T15:00:33;27.90;99.90
51902;DHT22;37929;53.218;6.548;2022-08-03T15:02:59;27.80;99.90
51902;DHT22;37929;53.218;6.548;2022-08-03T15:05:25;27.80;99.90
51902;DHT22;37929;53.218;6.548;2022-08-03T15:07:51;27.90;99.90
51902;DHT22;37929;53.218;6.548;2022-08-03T15:10:17;27.90;99.90
51902;DHT22;37929;53.218;6.548;2022-08-03T15:12:43;27.90;99.90
51902;DHT22;37929;53.218;6.548;2022-08-03T15:15:09;28.00;99.90
51902;DHT22;37929;53.218;6.548;2022-08-03T15:17:35;27.60;99.90
51902;DHT22;37929;53.218;6.548;2022-08-03T15:20:01;28.00;99.90
51902;DHT22;37929;53.218;6.548;2022-08-03T15:22:28;28.00;99.90
51902;DHT22;37929;53.218;6.548;2022-08-03T15:24:57;28.00;99.90
51902;DHT22;37929;53.218;6.548;2022-08-03T15:27:23;28.10;99.90
51902;DHT22;37929;53.218;6.548;2022-08-03T15:29:48;28.10;99.90
51902;DHT22;37929;53.218;6.548;2022-08-03T15:32:14;28.10;99.30
51902;DHT22;37929;53.218;6.548;2022-08-03T15:34:43;28.10;99.00
51902;DHT22;37929;53.218;6.548;2022-08-03T15:37:09;28.10;98.70
51902;DHT22;37929;53.218;6.548;2022-08-03T15:39:37;28.10;98.80
51902;DHT22;37929;53.218;6.548;2022-08-03T15:42:03;28.10;99.10
51902;DHT22;37929;53.218;6.548;2022-08-03T15:44:29;28.10;98.70
51902;DHT22;37929;53.218;6.548;2022-08-03T15:46:55;27.80;98.20
51902;DHT22;37929;53.218;6.548;2022-08-03T15:49:20;28.10;98.30
51902;DHT22;37929;53.218;6.548;2022-08-03T15:51:46;28.10;98.40
51902;DHT22;37929;53.218;6.548;2022-08-03T15:54:12;28.00;97.70
51902;DHT22;37929;53.218;6.548;2022-08-03T15:56:38;28.00;97.80
51902;DHT22;37929;53.218;6.548;2022-08-03T15:59:06;27.90;97.30
51902;DHT22;37929;53.218;6.548;2022-08-03T16:01:32;27.90;97.30
51902;DHT22;37929;53.218;6.548;2022-08-03T16:03:58;27.90;97.00
51902;DHT22;37929;53.218;6.548;2022-08-03T16:06:24;27.90;96.60
51902;DHT22;37929;53.218;6.548;2022-08-03T16:08:50;27.90;96.50
51902;DHT22;37929;53.218;6.548;2022-08-03T16:11:16;27.90;95.80
51902;DHT22;37929;53.218;6.548;2022-08-03T16:13:42;27.80;96.20
51902;DHT22;37929;53.218;6.548;2022-08-03T16:16:07;27.80;96.40
51902;DHT22;37929;53.218;6.548;2022-08-03T16:18:35;27.70;96.30
51902;DHT22;37929;53.218;6.548;2022-08-03T16:21:03;27.80;96.90